Time;durP1;ratioP1;P1;durP2;ratioP2;P2;SDS_P1;SDS_P2;PMS_P1;PMS_P2;Temp;Humidity;BMP_temperature;BMP_pressure;BME280_temperature;BME280_humidity;BME280_pressure;Samples;Min_cycle;Max_cycle;Signal;HPM_P1;HPM_P2
2022/10/29 00:01:41;;;;;;;14.93;6.57;;;;;;;-145.18;100.00;46658.44;5008898;28;20045;-70
2022/10/29 00:04:07;;;;;;;49.70;7.87;;;;;;;-145.18;100.00;46658.44;5009311;28;20041;-70
2022/10/29 00:06:32;;;;;;;14.97;7.47;;;;;;;-145.18;100.00;46660.41;5008775;28;20045;-70
2022/10/29 00:08:57;;;;;;;13.37;6.90;;;;;;;-145.18;100.00;46658.44;4991414;28;20068;-70
2022/10/29 00:11:23;;;;;;;14.23;6.97;;;;;;;-145.18;100.00;46654.53;5008724;28;20513;-70
2022/10/29 00:13:57;;;;;;;11.13;6.57;;;;;;;-145.18;100.00;46656.50;5009016;28;20066;-70
2022/10/29 00:16:25;;;;;;;13.93;6.77;;;;;;;-145.18;100.00;46656.50;5008474;28;20039;-70
2022/10/29 00:18:51;;;;;;;8.47;5.30;;;;;;;-145.18;100.00;46656.50;5009068;28;20030;-70
2022/10/29 00:21:19;;;;;;;11.27;5.70;;;;;;;-145.18;100.00;46656.50;5008816;28;20501;-70
2022/10/29 00:23:45;;;;;;;9.53;5.27;;;;;;;-145.18;100.00;46660.41;5008941;28;20030;-70
2022/10/29 00:26:11;;;;;;;9.43;4.60;;;;;;;-145.18;100.00;46660.41;5008486;28;20037;-70
2022/10/29 00:28:37;;;;;;;8.07;4.27;;;;;;;-145.18;100.00;46658.44;5008555;28;20037;-70
2022/10/29 00:31:23;;;;;;;9.03;4.37;;;;;;;-145.18;100.00;46660.41;5008699;28;20512;-69
2022/10/29 00:33:49;;;;;;;14.30;5.63;;;;;;;-145.18;100.00;46654.53;5008895;28;20087;-70
2022/10/29 00:36:18;;;;;;;8.33;5.03;;;;;;;-145.18;100.00;46662.34;5008784;28;20042;-70
2022/10/29 00:38:44;;;;;;;5.80;4.07;;;;;;;-145.18;100.00;46658.44;5008938;28;20492;-70
2022/10/29 00:41:13;;;;;;;8.53;4.40;;;;;;;-145.18;100.00;46658.44;5008952;28;20033;-70
2022/10/29 00:43:42;;;;;;;16.17;6.80;;;;;;;-145.18;100.00;46658.44;5008350;28;20026;-70
2022/10/29 00:46:13;;;;;;;14.00;6.63;;;;;;;-145.18;100.00;46660.41;5008450;28;20512;-70
2022/10/29 00:48:42;;;;;;;16.37;7.80;;;;;;;-145.18;100.00;46664.31;5008561;28;20040;-70
2022/10/29 00:51:12;;;;;;;9.40;5.83;;;;;;;-145.18;100.00;46662.34;5007603;28;20038;-70
2022/10/29 00:53:40;;;;;;;34.93;4.83;;;;;;;-145.18;100.00;46660.41;5008014;28;20413;-70
2022/10/29 00:56:06;;;;;;;6.03;4.10;;;;;;;-145.18;100.00;46666.25;5008484;28;20091;-70
2022/10/29 00:58:32;;;;;;;5.87;4.43;;;;;;;-145.18;100.00;46658.44;5008050;28;20042;-70
2022/10/29 01:00:58;;;;;;;7.53;5.00;;;;;;;-145.18;100.00;46662.34;5008359;28;20038;-70
2022/10/29 01:03:23;;;;;;;36.63;6.27;;;;;;;-145.18;100.00;46656.50;4990404;28;20680;-69
2022/10/29 01:05:51;;;;;;;12.47;6.13;;;;;;;-145.18;100.00;46660.41;5008292;28;20118;-70
2022/10/29 01:08:17;;;;;;;13.40;5.37;;;;;;;-145.18;100.00;46656.50;4987130;28;20050;-69
2022/10/29 01:11:01;;;;;;;21.37;5.90;;;;;;;-145.18;100.00;46656.50;4988351;28;20510;-70
2022/10/29 01:13:39;;;;;;;8.07;5.60;;;;;;;-145.18;100.00;46662.34;4988566;28;20039;-70
2022/10/29 01:16:24;;;;;;;7.80;4.97;;;;;;;-145.18;100.00;46660.41;4988488;28;20026;-69
2022/10/29 01:19:12;;;;;;;12.40;4.07;;;;;;;-145.18;100.00;46660.41;4988661;28;20371;-69
2022/10/29 01:21:41;;;;;;;22.90;4.03;;;;;;;-145.18;100.00;46660.41;4988347;28;20394;-69
2022/10/29 01:24:24;;;;;;;22.37;3.07;;;;;;;-145.18;100.00;46658.44;4988595;28;20034;-69
2022/10/29 01:27:15;;;;;;;15.17;3.97;;;;;;;-145.18;100.00;46662.34;4988421;28;20038;-69
2022/10/29 01:29:59;;;;;;;8.60;4.20;;;;;;;-145.18;100.00;46662.34;4971141;28;20035;-69
2022/10/29 01:32:48;;;;;;;13.03;4.20;;;;;;;-145.18;100.00;46666.25;4968746;28;20566;-69
2022/10/29 01:35:31;;;;;;;10.90;5.10;;;;;;;-145.18;100.00;46666.25;4969126;28;20038;-69
2022/10/29 01:38:20;;;;;;;9.53;4.10;;;;;;;-145.18;100.00;46662.34;4968764;28;20023;-69
2022/10/29 01:40:52;;;;;;;9.07;4.23;;;;;;;-145.18;100.00;46666.25;4968604;28;20066;-70
2022/10/29 01:43:42;;;;;;;10.17;4.87;;;;;;;-145.18;100.00;46666.25;4986382;28;20034;-70
2022/10/29 01:46:15;;;;;;;12.10;5.60;;;;;;;-145.18;100.00;46668.22;4983902;28;20080;-69
2022/10/29 01:48:46;;;;;;;12.23;5.93;;;;;;;-145.18;100.00;46670.16;4988019;28;20117;-69
2022/10/29 01:51:23;;;;;;;15.43;7.20;;;;;;;-145.18;100.00;46660.41;4988211;28;20512;-70
2022/10/29 01:53:50;;;;;;;14.13;7.30;;;;;;;-145.18;100.00;46662.34;4988275;28;20042;-69
2022/10/29 01:56:16;;;;;;;16.27;8.23;;;;;;;-145.18;100.00;46656.50;4987818;28;20038;-70
2022/10/29 01:58:45;;;;;;;16.37;7.87;;;;;;;-145.18;100.00;46660.41;4987859;28;20038;-70
2022/10/29 02:01:29;;;;;;;28.67;6.37;;;;;;;-145.18;100.00;46660.41;4987664;28;20129;-70
2022/10/29 02:04:34;;;;;;;20.83;6.40;;;;;;;-145.18;100.00;46660.41;4987997;28;20508;-70
2022/10/29 02:07:33;;;;;;;25.07;8.83;;;;;;;-145.18;100.00;46662.34;4987831;28;20031;-70
2022/10/29 02:09:59;;;;;;;177.73;11.27;;;;;;;-145.18;100.00;46660.41;4986095;28;20054;-70
2022/10/29 02:12:37;;;;;;;19.30;8.13;;;;;;;-145.18;100.00;46658.44;4987717;28;20030;-70
2022/10/29 02:15:08;;;;;;;18.83;7.83;;;;;;;-145.18;100.00;46660.41;4987780;28;20109;-70
2022/10/29 02:17:34;;;;;;;24.50;8.50;;;;;;;-145.18;100.00;46654.53;4987448;28;20035;-70
2022/10/29 02:20:08;;;;;;;36.80;7.70;;;;;;;-145.18;100.00;46658.44;4987525;28;20037;-70
2022/10/29 02:22:34;;;;;;;46.07;6.93;;;;;;;-145.18;100.00;46656.50;4987537;28;20034;-70
2022/10/29 02:25:00;;;;;;;28.97;5.97;;;;;;;-145.18;100.00;46658.44;4987551;28;20394;-70
2022/10/29 02:27:25;;;;;;;38.50;6.67;;;;;;;-145.18;100.00;46662.34;4987333;28;20049;-70
2022/10/29 02:29:50;;;;;;;68.40;6.90;;;;;;;-145.18;100.00;46654.53;4987725;28;20034;-69
2022/10/29 02:32:16;;;;;;;11.27;5.83;;;;;;;-145.18;100.00;46654.53;4987178;28;20113;-69
2022/10/29 02:34:41;;;;;;;10.63;5.60;;;;;;;-145.18;100.00;46654.53;4987237;28;20069;-70
2022/10/29 02:37:06;;;;;;;16.37;6.50;;;;;;;-145.18;100.00;46656.50;4987676;28;20034;-69
2022/10/29 02:39:32;;;;;;;11.90;6.00;;;;;;;-145.18;100.00;46654.53;4987302;28;20039;-69
2022/10/29 02:41:57;;;;;;;16.97;6.80;;;;;;;-145.18;100.00;46658.44;4987467;28;20041;-68
2022/10/29 02:44:23;;;;;;;11.93;6.03;;;;;;;-145.18;100.00;46656.50;4987349;28;20043;-68
2022/10/29 02:46:48;;;;;;;7.97;5.33;;;;;;;-145.18;100.00;46662.34;4987130;28;20043;-69
2022/10/29 02:49:13;;;;;;;15.27;6.70;;;;;;;-145.18;100.00;46658.44;4987473;28;20612;-68
2022/10/29 02:51:39;;;;;;;11.33;6.40;;;;;;;-145.18;100.00;46660.41;4986871;28;20479;-69
2022/10/29 02:54:04;;;;;;;10.33;5.07;;;;;;;-145.18;100.00;46654.53;4987387;28;20054;-69
2022/10/29 02:56:29;;;;;;;6.33;4.63;;;;;;;-145.18;100.00;46658.44;4986898;28;20113;-69
2022/10/29 02:58:55;;;;;;;8.53;4.57;;;;;;;-145.18;100.00;46656.50;4987425;28;20548;-69
2022/10/29 03:01:23;;;;;;;9.93;5.20;;;;;;;-145.18;100.00;46662.34;5107745;22;20050;-89
2022/10/29 03:03:48;;;;;;;15.00;7.20;;;;;;;-145.18;100.00;46660.41;4940146;23;20511;-70
2022/10/29 03:06:16;;;;;;;12.47;6.70;;;;;;;-145.18;100.00;46660.41;4987511;28;20058;-70
2022/10/29 03:08:41;;;;;;;14.40;7.63;;;;;;;-145.18;100.00;46660.41;4987131;28;20401;-70
2022/10/29 03:11:07;;;;;;;16.97;9.40;;;;;;;-145.18;100.00;46662.34;4987744;28;20042;-70
2022/10/29 03:13:33;;;;;;;18.17;8.93;;;;;;;-145.18;100.00;46656.50;4988807;28;20114;-70
2022/10/29 03:15:58;;;;;;;23.97;10.00;;;;;;;-145.18;100.00;46654.53;4990326;28;20537;-68
2022/10/29 03:18:23;;;;;;;17.00;9.77;;;;;;;-145.18;100.00;46658.44;4990292;28;20030;-70
2022/10/29 03:20:49;;;;;;;19.90;9.27;;;;;;;-145.18;100.00;46652.59;4990564;28;20095;-68
2022/10/29 03:23:14;;;;;;;13.67;8.53;;;;;;;-145.18;100.00;46656.50;4990719;28;20061;-68
2022/10/29 03:25:40;;;;;;;16.60;8.70;;;;;;;-145.18;100.00;46658.44;4990239;28;20034;-69
2022/10/29 03:28:05;;;;;;;12.83;8.47;;;;;;;-145.18;100.00;46658.44;4990480;28;20121;-69
2022/10/29 03:30:30;;;;;;;19.53;8.13;;;;;;;-145.18;100.00;46660.41;4990446;28;20478;-69
2022/10/29 03:32:56;;;;;;;16.87;8.43;;;;;;;-145.18;100.00;46658.44;4990183;28;20087;-69
2022/10/29 03:35:21;;;;;;;15.37;8.70;;;;;;;-145.18;100.00;46658.44;4989618;28;20180;-69
2022/10/29 03:37:51;;;;;;;15.80;8.60;;;;;;;-145.18;100.00;46656.50;4989987;28;20038;-71
2022/10/29 03:40:17;;;;;;;16.57;8.17;;;;;;;-145.18;100.00;46654.53;4990515;28;20167;-69
2022/10/29 03:42:42;;;;;;;14.73;8.13;;;;;;;-145.18;100.00;46658.44;4990159;28;20026;-69
2022/10/29 03:45:09;;;;;;;14.13;7.70;;;;;;;-145.18;100.00;46658.44;4990575;28;20039;-70
2022/10/29 03:47:35;;;;;;;16.50;7.23;;;;;;;-145.18;100.00;46660.41;4990205;28;20137;-71
2022/10/29 03:50:01;;;;;;;10.67;5.77;;;;;;;-145.18;100.00;46658.44;4972969;28;20113;-70
2022/10/29 03:52:27;;;;;;;6.83;4.50;;;;;;;-145.18;100.00;46658.44;4990005;28;20046;-70
2022/10/29 03:54:52;;;;;;;12.57;4.53;;;;;;;-145.18;100.00;46658.44;4990136;28;20026;-70
2022/10/29 03:57:18;;;;;;;13.17;6.83;;;;;;;-145.18;100.00;46654.53;4972675;28;20088;-69
2022/10/29 03:59:43;;;;;;;14.53;8.43;;;;;;;-145.18;100.00;46656.50;5008954;28;20038;-70
2022/10/29 04:02:09;;;;;;;19.67;9.00;;;;;;;-145.18;100.00;46656.50;5041633;28;20663;-70
2022/10/29 04:04:34;;;;;;;17.30;8.83;;;;;;;-145.18;100.00;46656.50;5043365;28;20034;-70
2022/10/29 04:07:00;;;;;;;20.70;10.00;;;;;;;-145.18;100.00;46658.44;4996621;28;20043;-70
2022/10/29 04:09:25;;;;;;;19.20;9.93;;;;;;;-145.18;100.00;46654.53;5033614;28;20045;-70
2022/10/29 04:11:50;;;;;;;20.50;10.07;;;;;;;-145.18;100.00;46660.41;5005018;28;20042;-70
2022/10/29 04:14:16;;;;;;;23.30;9.77;;;;;;;-145.18;100.00;46662.34;5046140;28;20032;-68
2022/10/29 04:16:41;;;;;;;25.77;12.40;;;;;;;-145.18;100.00;46652.59;5037133;28;20058;-70
2022/10/29 04:19:06;;;;;;;21.17;11.13;;;;;;;-145.18;100.00;46656.50;5008398;28;20486;-70
2022/10/29 04:21:32;;;;;;;18.73;10.37;;;;;;;-145.18;100.00;46652.59;4994822;28;20035;-71
2022/10/29 04:23:57;;;;;;;23.40;11.87;;;;;;;-145.18;100.00;46658.44;4989202;28;20034;-70
2022/10/29 04:26:22;;;;;;;18.60;10.67;;;;;;;-145.18;100.00;46660.41;4989065;28;20549;-70
2022/10/29 04:28:49;;;;;;;17.20;10.00;;;;;;;-145.18;100.00;46658.44;4971711;28;20043;-70
2022/10/29 04:31:14;;;;;;;20.70;12.10;;;;;;;-145.18;100.00;46658.44;4989249;28;20084;-71
2022/10/29 04:33:40;;;;;;;25.50;12.97;;;;;;;-145.18;100.00;46658.44;4988862;28;20046;-71
2022/10/29 04:36:06;;;;;;;22.27;12.70;;;;;;;-145.18;100.00;46658.44;4971881;28;20045;-71
2022/10/29 04:38:31;;;;;;;24.10;12.57;;;;;;;-145.18;100.00;46664.31;5017695;28;20044;-71
2022/10/29 04:40:58;;;;;;;16.93;12.20;;;;;;;-145.18;100.00;46658.44;5016617;28;20808;-71
2022/10/29 04:43:23;;;;;;;20.77;11.97;;;;;;;-145.18;100.00;46652.59;4988812;28;20034;-70
2022/10/29 04:45:53;;;;;;;23.17;11.93;;;;;;;-145.18;100.00;46658.44;4989067;28;20034;-71
2022/10/29 04:48:19;;;;;;;25.47;12.77;;;;;;;-145.18;100.00;46658.44;5015879;28;20487;-71
2022/10/29 04:50:45;;;;;;;20.87;13.30;;;;;;;-145.18;100.00;46652.59;5024147;28;20038;-71
2022/10/29 04:53:10;;;;;;;28.13;16.10;;;;;;;-145.18;100.00;46660.41;4988556;28;20056;-71
2022/10/29 04:55:37;;;;;;;24.23;14.87;;;;;;;-145.18;100.00;46656.50;5055754;28;20113;-71
2022/10/29 04:58:04;;;;;;;24.13;14.83;;;;;;;-145.18;100.00;46654.53;4989240;28;20393;-71
2022/10/29 05:00:31;;;;;;;25.07;15.63;;;;;;;-145.18;100.00;46648.69;4989197;28;20498;-71
2022/10/29 05:02:57;;;;;;;30.97;15.93;;;;;;;-145.18;100.00;46654.53;4988269;28;20063;-71
2022/10/29 05:05:22;;;;;;;30.43;15.57;;;;;;;-145.18;100.00;46654.53;4989125;28;20037;-71
2022/10/29 05:07:48;;;;;;;30.77;16.83;;;;;;;-145.18;100.00;46658.44;5055800;28;20045;-71
2022/10/29 05:10:13;;;;;;;31.93;16.97;;;;;;;-145.18;100.00;46652.59;4989373;28;20039;-71
2022/10/29 05:12:39;;;;;;;34.93;18.03;;;;;;;-145.18;100.00;46662.34;5055381;28;20440;-70
2022/10/29 05:15:05;;;;;;;36.13;19.73;;;;;;;-145.18;100.00;46656.50;4989341;28;20103;-70
2022/10/29 05:17:30;;;;;;;29.17;17.67;;;;;;;-145.18;100.00;46650.63;4988463;28;20032;-70
2022/10/29 05:19:56;;;;;;;31.27;17.87;;;;;;;-145.18;100.00;46654.53;5056002;28;20613;-70
2022/10/29 05:22:21;;;;;;;32.70;18.20;;;;;;;-145.18;100.00;46652.59;4988653;28;20030;-71
2022/10/29 05:24:47;;;;;;;41.03;19.17;;;;;;;-145.18;100.00;46652.59;4991869;28;20121;-70
2022/10/29 05:27:12;;;;;;;36.67;20.07;;;;;;;-145.18;100.00;46648.69;4988054;28;20050;-71
2022/10/29 05:29:37;;;;;;;41.70;19.93;;;;;;;-145.18;100.00;46646.72;4988075;28;20688;-71
2022/10/29 05:32:03;;;;;;;38.67;20.80;;;;;;;-145.18;100.00;46654.53;4988332;28;20042;-70
2022/10/29 05:34:28;;;;;;;37.67;20.57;;;;;;;-145.18;100.00;46650.63;4988382;28;20065;-70
2022/10/29 05:36:54;;;;;;;33.23;20.50;;;;;;;-145.18;100.00;46648.69;4987932;28;20042;-70
2022/10/29 05:39:19;;;;;;;37.77;19.33;;;;;;;-145.18;100.00;46650.63;4988223;28;20039;-70
2022/10/29 05:41:45;;;;;;;35.90;20.97;;;;;;;-145.18;100.00;46650.63;4988109;28;20126;-71
2022/10/29 05:44:11;;;;;;;33.37;19.50;;;;;;;-145.18;100.00;46646.72;4988336;28;20498;-70
2022/10/29 05:46:36;;;;;;;37.13;20.73;;;;;;;-145.18;100.00;46648.69;4988142;28;20045;-70
2022/10/29 05:49:02;;;;;;;34.97;19.70;;;;;;;-145.18;100.00;46648.69;4988335;28;20487;-70
2022/10/29 05:51:27;;;;;;;37.63;19.63;;;;;;;-145.18;100.00;46646.72;4988192;28;20084;-70
2022/10/29 05:53:52;;;;;;;37.10;19.17;;;;;;;-145.18;100.00;46644.78;4987890;28;20050;-70
2022/10/29 05:56:18;;;;;;;36.37;19.87;;;;;;;-145.18;100.00;46646.72;4988414;28;20042;-70
2022/10/29 05:58:43;;;;;;;32.87;20.17;;;;;;;-145.18;100.00;46648.69;5018629;28;20042;-70
2022/10/29 06:01:10;;;;;;;42.00;19.83;;;;;;;-145.18;100.00;46646.72;5029807;28;20134;-70
2022/10/29 06:03:36;;;;;;;33.93;19.70;;;;;;;-145.18;100.00;46646.72;4987505;28;20049;-70
2022/10/29 06:06:01;;;;;;;32.63;17.67;;;;;;;-145.18;100.00;46648.69;4970491;28;20048;-70
2022/10/29 06:08:27;;;;;;;33.50;18.27;;;;;;;-145.18;100.00;46648.69;4987964;28;20038;-70
2022/10/29 06:10:52;;;;;;;32.67;17.30;;;;;;;-145.18;100.00;46642.81;4987870;28;20034;-70
2022/10/29 06:13:19;;;;;;;30.77;17.00;;;;;;;-145.18;100.00;46644.78;4987509;28;20126;-71
2022/10/29 06:15:49;;;;;;;37.90;17.73;;;;;;;-145.18;100.00;46648.69;4987622;28;20034;-71
2022/10/29 06:18:15;;;;;;;36.10;18.10;;;;;;;-145.18;100.00;46644.78;4987399;28;20046;-71
2022/10/29 06:20:42;;;;;;;35.07;18.90;;;;;;;-145.18;100.00;46644.78;4977865;28;20031;-71
2022/10/29 06:23:09;;;;;;;25.97;16.93;;;;;;;-145.18;100.00;46644.78;4986142;28;20088;-71
2022/10/29 06:25:34;;;;;;;27.50;17.57;;;;;;;-145.18;100.00;46648.69;5020076;28;20029;-71
2022/10/29 06:28:01;;;;;;;36.70;17.27;;;;;;;-145.18;100.00;46648.69;5053700;28;20125;-71
2022/10/29 06:30:27;;;;;;;34.63;17.23;;;;;;;-145.18;100.00;46644.78;4987781;28;20088;-70
2022/10/29 06:32:53;;;;;;;36.43;19.63;;;;;;;-145.18;100.00;46646.72;4987380;28;20030;-70
2022/10/29 06:35:18;;;;;;;35.03;18.93;;;;;;;-145.18;100.00;46644.78;4987011;28;20049;-71
2022/10/29 06:37:43;;;;;;;30.97;19.00;;;;;;;-145.18;100.00;46644.78;4987039;28;20041;-70
2022/10/29 06:40:09;;;;;;;34.90;18.57;;;;;;;-145.18;100.00;46648.69;4987787;28;20039;-70
2022/10/29 06:42:34;;;;;;;34.87;18.17;;;;;;;-145.18;100.00;46644.78;4987505;28;20073;-70
2022/10/29 06:44:59;;;;;;;38.80;19.70;;;;;;;-145.18;100.00;46646.72;4987559;28;20042;-70
2022/10/29 06:47:25;;;;;;;37.93;20.03;;;;;;;-145.18;100.00;46648.69;4987146;28;20116;-70
2022/10/29 06:49:50;;;;;;;44.07;22.13;;;;;;;-145.18;100.00;46648.69;4990757;28;20042;-71
2022/10/29 06:52:15;;;;;;;42.00;22.33;;;;;;;-145.18;100.00;46646.72;4990917;28;20486;-70
2022/10/29 06:54:42;;;;;;;39.87;21.70;;;;;;;-145.18;100.00;46646.72;4989972;28;20053;-71
2022/10/29 06:57:07;;;;;;;46.33;24.03;;;;;;;-145.18;100.00;46650.63;4990861;28;20043;-71
2022/10/29 06:59:32;;;;;;;55.50;25.73;;;;;;;-145.18;100.00;46650.63;4990879;28;20043;-71
2022/10/29 07:01:58;;;;;;;49.60;24.37;;;;;;;-145.18;100.00;46644.78;4973172;28;20133;-71
2022/10/29 07:04:23;;;;;;;47.67;25.27;;;;;;;-145.18;100.00;46648.69;4990894;28;20125;-71
2022/10/29 07:06:49;;;;;;;49.43;25.53;;;;;;;-145.18;100.00;46644.78;4990850;28;20398;-71
2022/10/29 07:09:14;;;;;;;51.50;25.20;;;;;;;-145.18;100.00;46648.69;4990507;28;20049;-71
2022/10/29 07:11:39;;;;;;;47.43;27.50;;;;;;;-145.18;100.00;46648.69;4990445;28;20038;-71
2022/10/29 07:14:07;;;;;;;48.90;26.17;;;;;;;-145.18;100.00;46652.59;4990032;28;20077;-71
2022/10/29 07:16:32;;;;;;;48.77;24.77;;;;;;;-145.18;100.00;46646.72;4987991;28;20041;-71
2022/10/29 07:18:58;;;;;;;51.07;25.17;;;;;;;-145.18;100.00;46650.63;4989238;28;20262;-71
2022/10/29 07:21:23;;;;;;;50.57;24.73;;;;;;;-145.18;100.00;46646.72;4989630;28;20037;-71
2022/10/29 07:23:49;;;;;;;58.30;26.57;;;;;;;-145.18;100.00;46644.78;5009962;28;20057;-71
2022/10/29 07:26:14;;;;;;;43.53;26.43;;;;;;;-145.18;100.00;46644.78;5050207;28;20036;-71
2022/10/29 07:28:39;;;;;;;50.80;24.97;;;;;;;-145.18;100.00;46648.69;5043802;28;20183;-71
2022/10/29 07:31:06;;;;;;;50.63;25.37;;;;;;;-145.18;100.00;46646.72;4989361;28;20042;-71
2022/10/29 07:33:32;;;;;;;43.43;25.83;;;;;;;-145.18;100.00;46648.69;4989486;28;20062;-71
2022/10/29 07:35:58;;;;;;;51.57;27.00;;;;;;;-145.18;100.00;46648.69;4989931;28;20510;-71
2022/10/29 07:38:24;;;;;;;49.20;25.33;;;;;;;-145.18;100.00;46648.69;4983590;28;20121;-71
2022/10/29 07:40:50;;;;;;;60.30;28.40;;;;;;;-145.18;100.00;46650.63;4969337;28;20077;-71
2022/10/29 07:43:17;;;;;;;51.90;27.40;;;;;;;-145.18;100.00;46644.78;4982845;28;20030;-71
2022/10/29 07:45:50;;;;;;;59.30;29.07;;;;;;;-145.18;100.00;46650.63;4972048;28;20038;-71
2022/10/29 07:48:16;;;;;;;57.87;28.57;;;;;;;-145.18;100.00;46646.72;4989845;28;20038;-71
2022/10/29 07:50:42;;;;;;;55.30;26.03;;;;;;;-145.18;100.00;46648.69;4990154;28;20034;-71
2022/10/29 07:53:08;;;;;;;61.73;28.23;;;;;;;-145.18;100.00;46648.69;4989353;28;20153;-71
2022/10/29 07:55:34;;;;;;;48.80;27.10;;;;;;;-145.18;100.00;46648.69;4990094;28;20041;-69
2022/10/29 07:58:02;;;;;;;53.90;27.60;;;;;;;-145.18;100.00;46646.72;4989654;28;20043;-69
2022/10/29 08:00:31;;;;;;;50.13;26.30;;;;;;;-145.18;100.00;46646.72;4989441;28;20126;-69
2022/10/29 08:02:57;;;;;;;44.27;24.90;;;;;;;-145.18;100.00;46648.69;4989166;28;20092;-69
2022/10/29 08:05:24;;;;;;;43.20;24.70;;;;;;;-145.18;100.00;46646.72;4989433;28;20038;-69
2022/10/29 08:07:51;;;;;;;52.87;25.03;;;;;;;-145.18;100.00;46648.69;4988879;28;20892;-69
2022/10/29 08:10:16;;;;;;;42.47;24.50;;;;;;;-145.18;100.00;46654.53;4975569;28;20478;-69
2022/10/29 08:12:50;;;;;;;48.20;23.57;;;;;;;-145.18;100.00;46648.69;4989348;28;20030;-69
2022/10/29 08:15:16;;;;;;;45.10;24.37;;;;;;;-145.18;100.00;46650.63;4989519;28;20035;-69
2022/10/29 08:17:41;;;;;;;47.80;23.83;;;;;;;-145.18;100.00;46652.59;4989418;28;20052;-69
2022/10/29 08:20:07;;;;;;;42.40;22.53;;;;;;;-145.18;100.00;46648.69;4989698;28;20034;-69
2022/10/29 08:22:32;;;;;;;40.20;22.87;;;;;;;-145.18;100.00;46648.69;4989218;28;20076;-69
2022/10/29 08:24:58;;;;;;;41.47;23.37;;;;;;;-145.18;100.00;46650.63;4989424;28;20035;-69
2022/10/29 08:27:23;;;;;;;45.33;25.13;;;;;;;-145.18;100.00;46652.59;4989744;28;20042;-69
2022/10/29 08:29:48;;;;;;;44.00;22.93;;;;;;;-145.18;100.00;46652.59;4989214;28;20042;-69
2022/10/29 08:32:14;;;;;;;53.07;22.73;;;;;;;-145.18;100.00;46654.53;4989576;28;20045;-69
2022/10/29 08:34:39;;;;;;;38.33;20.63;;;;;;;-145.18;100.00;46650.63;4987301;28;20622;-70
2022/10/29 08:37:04;;;;;;;36.17;19.63;;;;;;;-145.18;100.00;46652.59;4989387;28;20437;-69
2022/10/29 08:39:30;;;;;;;36.73;19.63;;;;;;;-145.18;100.00;46654.53;4988871;28;20435;-69
2022/10/29 08:42:01;;;;;;;34.03;19.23;;;;;;;-145.18;100.00;46656.50;4989191;28;20035;-69
2022/10/29 08:44:45;;;;;;;47.73;18.17;;;;;;;-145.18;100.00;46660.41;5017271;28;20073;-70
2022/10/29 08:47:22;;;;;;;37.77;19.07;;;;;;;-145.18;100.00;46656.50;5016851;28;20043;-70
2022/10/29 08:49:59;;;;;;;34.50;18.03;;;;;;;-145.18;100.00;46658.44;5034208;28;20026;-69
2022/10/29 08:52:27;;;;;;;28.80;17.30;;;;;;;-145.18;100.00;46658.44;5031726;28;20025;-69
2022/10/29 08:55:18;;;;;;;32.60;18.63;;;;;;;-145.18;100.00;46656.50;4995814;28;20102;-69
2022/10/29 08:57:51;;;;;;;37.67;18.23;;;;;;;-145.18;100.00;46656.50;4987700;28;20023;-70
2022/10/29 09:00:32;;;;;;;38.27;19.07;;;;;;;-145.18;100.00;46656.50;4988567;28;20034;-70
2022/10/29 09:02:59;;;;;;;34.30;16.67;;;;;;;-145.18;100.00;46666.25;4988011;28;20091;-69
2022/10/29 09:05:31;;;;;;;34.20;17.40;;;;;;;-145.18;100.00;46662.34;4988339;28;20030;-70
2022/10/29 09:08:16;;;;;;;32.37;17.33;;;;;;;-145.18;100.00;46668.22;4988470;28;20389;-69
2022/10/29 09:10:54;;;;;;;34.00;17.17;;;;;;;-145.18;100.00;46664.31;4986992;28;20057;-69
2022/10/29 09:13:39;;;;;;;29.30;17.07;;;;;;;-145.18;100.00;46666.25;4988866;28;20102;-69
2022/10/29 09:16:32;;;;;;;32.57;16.63;;;;;;;-145.18;100.00;46664.31;4988935;28;20034;-70
2022/10/29 09:19:03;;;;;;;35.53;15.87;;;;;;;-145.18;100.00;46674.06;4988394;28;20035;-69
2022/10/29 09:21:59;;;;;;;32.13;17.40;;;;;;;-145.18;100.00;46664.31;4988287;28;20052;-69
2022/10/29 09:24:37;;;;;;;36.33;15.45;;;;;;;-145.18;100.00;46670.16;4988863;28;20100;-69
2022/10/29 09:27:12;;;;;;;31.00;15.13;;;;;;;-145.18;100.00;46668.22;4987774;28;20110;-69
2022/10/29 09:29:38;;;;;;;26.97;14.47;;;;;;;-145.18;100.00;46670.16;5090678;28;20031;-70
2022/10/29 09:32:09;;;;;;;28.77;15.30;;;;;;;-145.18;100.00;46664.31;5089393;28;20024;-69
2022/10/29 09:34:45;;;;;;;30.97;15.03;;;;;;;-145.18;100.00;46670.16;5090746;28;20062;-69
2022/10/29 09:37:16;;;;;;;33.83;15.47;;;;;;;-145.18;100.00;46666.25;5042469;28;20518;-69
2022/10/29 09:39:45;;;;;;;29.10;17.03;;;;;;;-145.18;100.00;46666.25;5044378;28;20181;-69
2022/10/29 09:42:15;;;;;;;30.23;15.10;;;;;;;-145.18;100.00;46670.16;5044558;28;20471;-70
2022/10/29 09:44:56;;;;;;;27.93;15.27;;;;;;;-145.18;100.00;46666.25;5069416;28;20088;-69
2022/10/29 09:47:31;;;;;;;25.87;14.43;;;;;;;-145.18;100.00;46670.16;5074362;28;20049;-69
2022/10/29 09:50:14;;;;;;;24.00;14.37;;;;;;;-145.18;100.00;46668.22;4993998;28;20122;-70
2022/10/29 09:52:42;;;;;;;31.73;14.27;;;;;;;-145.18;100.00;46664.31;4987538;28;20479;-69
2022/10/29 09:55:37;;;;;;;27.53;14.20;;;;;;;-145.18;100.00;46672.13;4988373;28;20026;-69
2022/10/29 09:58:04;;;;;;;28.00;13.97;;;;;;;-145.18;100.00;46676.03;4988085;28;20038;-70
2022/10/29 10:00:30;;;;;;;27.37;14.00;;;;;;;-145.18;100.00;46677.97;4988852;28;20046;-69
2022/10/29 10:03:05;;;;;;;34.97;13.57;;;;;;;-145.18;100.00;46677.97;4987932;28;20848;-70
2022/10/29 10:05:33;;;;;;;33.63;14.70;;;;;;;-145.18;100.00;46677.97;4970985;28;20034;-70
2022/10/29 10:08:12;;;;;;;28.93;13.70;;;;;;;-145.18;100.00;46681.88;4988275;28;20057;-70
2022/10/29 10:11:01;;;;;;;29.17;13.40;;;;;;;-145.18;100.00;46683.84;4987416;28;20031;-70
2022/10/29 10:13:34;;;;;;;26.27;12.87;;;;;;;-145.18;100.00;46679.94;4990057;28;20070;-70
2022/10/29 10:16:02;;;;;;;23.90;11.60;;;;;;;-145.18;100.00;46683.84;4987990;28;20560;-70
2022/10/29 10:18:30;;;;;;;31.80;11.80;;;;;;;-145.18;100.00;46685.78;4987797;28;20061;-70
2022/10/29 10:21:01;;;;;;;24.13;11.37;;;;;;;-145.18;100.00;46691.66;4987899;28;20035;-70
2022/10/29 10:23:51;;;;;;;22.87;11.20;;;;;;;-145.18;100.00;46687.75;5033322;28;20105;-70
2022/10/29 10:26:33;;;;;;;22.87;10.90;;;;;;;-145.18;100.00;46687.75;5083912;28;20058;-70
2022/10/29 10:29:18;;;;;;;27.40;11.03;;;;;;;-145.18;100.00;46687.75;5092573;28;20032;-70
2022/10/29 10:31:45;;;;;;;28.97;11.53;;;;;;;-145.18;100.00;46693.59;5093531;28;20020;-70
2022/10/29 10:34:19;;;;;;;22.70;10.40;;;;;;;-145.18;100.00;46687.75;5094139;28;20104;-70
2022/10/29 10:36:49;;;;;;;22.23;11.03;;;;;;;-145.18;100.00;46689.69;5094176;28;20051;-70
2022/10/29 10:39:51;;;;;;;23.60;11.10;;;;;;;-145.18;100.00;46691.66;5094038;28;20038;-70
2022/10/29 10:42:25;;;;;;;25.97;10.63;;;;;;;-145.18;100.00;46695.56;5094328;28;20024;-70
2022/10/29 10:44:55;;;;;;;19.70;9.70;;;;;;;-145.18;100.00;46695.56;5075174;28;20443;-70
2022/10/29 10:47:24;;;;;;;23.37;8.63;;;;;;;-145.18;100.00;46693.59;5094034;28;20115;-70
2022/10/29 10:49:49;;;;;;;16.67;7.67;;;;;;;-145.18;100.00;46693.59;5093702;28;20484;-70
2022/10/29 10:52:23;;;;;;;17.83;7.90;;;;;;;-145.18;100.00;46683.84;5094007;28;20036;-70
2022/10/29 10:55:08;;;;;;;23.97;8.97;;;;;;;-145.18;100.00;46668.22;5093671;28;20067;-70
2022/10/29 10:57:41;;;;;;;22.65;8.63;;;;;;;-145.18;100.00;46646.72;5093514;28;20152;-70
2022/10/29 11:00:17;;;;;;;20.77;8.13;;;;;;;-145.18;100.00;46590.06;5093863;28;20071;-70
2022/10/29 11:03:07;;;;;;;17.07;7.67;;;;;;;-145.18;100.00;46574.44;5074975;28;20101;-70
2022/10/29 11:05:54;;;;;;;16.93;8.37;;;;;;;-145.18;100.00;46572.50;5093423;28;20107;-70
2022/10/29 11:08:23;;;;;;;23.47;8.37;;;;;;;-145.18;100.00;46576.41;5093493;28;20086;-70